Time;durP1;ratioP1;P1;durP2;ratioP2;P2;SDS_P1;SDS_P2;PMS_P1;PMS_P2;Temp;Humidity;BMP_temperature;BMP_pressure;BME280_temperature;BME280_humidity;BME280_pressure;Samples;Min_cycle;Max_cycle;Signal;HPM_P1;HPM_P2
2023/05/25 00:01:25;;;;;;;18.25;7.63;;;6.60;99.90;;;;;;5058458;28;20049;-58
2023/05/25 00:03:51;;;;;;;21.40;8.13;;;6.70;99.90;;;;;;5058620;28;20049;-60
2023/05/25 00:06:18;;;;;;;18.67;7.85;;;6.70;99.90;;;;;;5063063;28;20572;-60
2023/05/25 00:08:45;;;;;;;13.38;7.65;;;6.70;99.90;;;;;;5058518;28;20072;-60
2023/05/25 00:11:11;;;;;;;23.50;8.45;;;6.70;99.90;;;;;;5062636;28;20110;-58
2023/05/25 00:13:38;;;;;;;16.95;8.95;;;6.60;99.90;;;;;;5056706;28;20124;-60
2023/05/25 00:16:04;;;;;;;21.33;8.38;;;6.60;99.90;;;;;;5055702;28;20194;-60
2023/05/25 00:18:31;;;;;;;22.40;7.47;;;6.60;99.90;;;;;;5048574;28;20048;-60
2023/05/25 00:21:04;;;;;;;22.15;7.80;;;6.70;99.90;;;;;;5045538;28;20734;-59
2023/05/25 00:23:30;;;;;;;20.77;8.40;;;6.70;99.90;;;;;;5044325;28;20059;-59
2023/05/25 00:25:56;;;;;;;17.60;8.25;;;6.70;99.90;;;;;;5041278;28;20560;-60
2023/05/25 00:28:21;;;;;;;16.65;7.50;;;6.80;99.90;;;;;;5044960;28;20052;-60
2023/05/25 00:30:47;;;;;;;18.77;7.97;;;6.80;99.90;;;;;;5046459;28;20037;-59
2023/05/25 00:33:14;;;;;;;23.13;8.23;;;6.80;99.90;;;;;;5047869;28;20044;-60
2023/05/25 00:35:41;;;;;;;20.58;8.48;;;6.80;99.90;;;;;;5043222;28;20041;-60
2023/05/25 00:38:17;;;;;;;19.63;7.53;;;6.70;99.90;;;;;;5046775;28;20040;-59
2023/05/25 00:40:44;;;;;;;21.65;8.00;;;6.70;99.90;;;;;;5044596;28;20047;-58
2023/05/25 00:43:10;;;;;;;17.35;7.72;;;6.60;99.90;;;;;;5044470;28;20495;-59
2023/05/25 00:45:37;;;;;;;18.65;8.07;;;6.60;99.90;;;;;;5044844;28;20397;-59
2023/05/25 00:48:06;;;;;;;18.90;8.18;;;6.60;99.90;;;;;;5048147;28;20519;-60
2023/05/25 00:50:42;;;;;;;19.10;7.28;;;6.60;99.90;;;;;;5041918;28;20052;-58
2023/05/25 00:53:09;;;;;;;18.83;8.48;;;6.60;99.90;;;;;;5034650;28;20041;-60
2023/05/25 00:55:44;;;;;;;19.35;8.23;;;6.50;99.90;;;;;;5036924;28;20124;-59
2023/05/25 00:58:12;;;;;;;15.63;7.78;;;6.50;99.90;;;;;;5037851;28;20041;-59
2023/05/25 01:00:41;;;;;;;18.92;8.60;;;6.50;99.90;;;;;;5042616;28;20210;-60
2023/05/25 01:03:16;;;;;;;17.75;7.50;;;6.50;99.90;;;;;;5041732;28;20037;-59
2023/05/25 01:05:46;;;;;;;15.27;7.30;;;6.50;99.90;;;;;;5038300;28;20041;-60
2023/05/25 01:11:43;;;;;;;13.18;6.75;;;6.40;99.90;;;;;;5040509;28;20049;-60
2023/05/25 01:14:09;;;;;;;21.05;7.35;;;6.40;99.90;;;;;;5039963;28;20041;-60
2023/05/25 01:16:36;;;;;;;20.92;7.78;;;6.30;99.90;;;;;;5037231;28;20053;-58
2023/05/25 01:19:03;;;;;;;18.98;7.85;;;6.30;99.90;;;;;;5037333;28;20051;-60
2023/05/25 01:21:40;;;;;;;17.83;6.78;;;6.40;99.90;;;;;;5037607;28;20045;-60
2023/05/25 01:24:25;;;;;;;16.90;6.80;;;6.30;99.90;;;;;;5039356;28;20029;-61
2023/05/25 01:27:02;;;;;;;20.17;7.80;;;6.30;99.90;;;;;;5044482;28;20045;-61
2023/05/25 01:29:31;;;;;;;13.02;7.13;;;6.30;99.90;;;;;;5036590;28;20041;-61
2023/05/25 01:31:58;;;;;;;18.80;8.05;;;6.30;99.90;;;;;;5041460;28;20048;-61
2023/05/25 01:34:25;;;;;;;22.23;8.40;;;6.30;99.90;;;;;;5037248;28;20049;-60
2023/05/25 01:36:50;;;;;;;13.02;7.05;;;6.30;99.90;;;;;;5045894;28;20098;-58
2023/05/25 01:39:21;;;;;;;16.42;8.40;;;6.20;99.90;;;;;;5045449;28;20131;-59
2023/05/25 01:41:46;;;;;;;17.77;7.40;;;6.30;99.90;;;;;;5045029;28;20072;-60
2023/05/25 01:44:12;;;;;;;20.08;7.43;;;6.30;99.90;;;;;;5044459;28;20607;-60
2023/05/25 01:46:39;;;;;;;13.43;6.90;;;6.30;99.90;;;;;;5043090;28;20060;-60
2023/05/25 01:49:08;;;;;;;16.80;6.93;;;6.30;99.90;;;;;;5039194;28;20041;-60
2023/05/25 01:51:46;;;;;;;18.52;7.75;;;6.30;99.90;;;;;;5041600;28;20575;-58
2023/05/25 01:54:18;;;;;;;12.30;6.90;;;6.30;99.90;;;;;;5038726;28;20056;-60
2023/05/25 01:56:45;;;;;;;12.95;6.43;;;6.30;99.90;;;;;;5041335;28;20049;-60
2023/05/25 01:59:13;;;;;;;15.07;6.97;;;6.30;99.90;;;;;;5039703;28;20041;-63
2023/05/25 02:01:42;;;;;;;17.70;7.50;;;6.30;99.90;;;;;;5038901;28;20044;-60
2023/05/25 02:04:08;;;;;;;14.93;7.55;;;6.30;99.90;;;;;;5038661;28;20044;-60
2023/05/25 02:06:35;;;;;;;12.57;6.88;;;6.20;99.90;;;;;;5042627;28;20143;-61
2023/05/25 02:09:01;;;;;;;22.13;8.90;;;6.20;99.90;;;;;;5042622;28;20115;-59
2023/05/25 02:11:27;;;;;;;18.52;7.20;;;6.20;99.90;;;;;;5035924;28;20383;-60
2023/05/25 02:13:52;;;;;;;14.38;7.05;;;6.20;99.90;;;;;;5036218;28;20571;-57
2023/05/25 02:16:18;;;;;;;19.30;6.80;;;6.20;99.90;;;;;;5040770;28;20052;-58
2023/05/25 02:18:44;;;;;;;;;;;6.30;99.90;;;;;;5043204;28;20167;-58
2023/05/25 02:21:10;;;;;;;17.52;6.78;;;6.30;99.90;;;;;;5039680;28;19912;-60
2023/05/25 02:23:36;;;;;;;15.05;7.60;;;6.30;99.90;;;;;;5034543;28;20128;-61
2023/05/25 02:26:02;;;;;;;10.98;5.85;;;6.40;99.90;;;;;;5040207;28;20520;-60
2023/05/25 02:28:28;;;;;;;10.73;6.38;;;6.40;99.90;;;;;;5043987;28;20045;-61
2023/05/25 02:30:53;;;;;;;14.18;6.75;;;6.40;99.90;;;;;;5042607;28;20043;-61
2023/05/25 02:33:19;;;;;;;;;;;6.40;99.90;;;;;;5044458;28;20377;-60
2023/05/25 02:35:45;;;;;;;12.70;5.90;;;6.50;99.90;;;;;;5036292;28;19917;-61
2023/05/25 02:38:11;;;;;;;17.65;7.07;;;6.50;99.90;;;;;;5042268;28;20100;-61
2023/05/25 02:40:37;;;;;;;17.50;7.38;;;6.60;99.90;;;;;;5029689;28;20576;-60
2023/05/25 02:43:02;;;;;;;23.25;9.43;;;6.60;99.90;;;;;;5042729;28;20040;-61
2023/05/25 02:45:28;;;;;;;16.23;7.25;;;6.70;99.90;;;;;;5038301;28;20120;-60
2023/05/25 02:47:53;;;;;;;;;;;6.80;99.90;;;;;;5044988;28;20047;-60
2023/05/25 02:50:19;;;;;;;16.98;7.18;;;6.80;99.90;;;;;;5032274;28;19921;-60
2023/05/25 02:52:45;;;;;;;21.92;7.45;;;6.80;99.90;;;;;;5037125;28;20033;-61
2023/05/25 02:55:12;;;;;;;17.52;7.53;;;6.90;99.90;;;;;;5042160;28;20116;-61
2023/05/25 02:57:38;;;;;;;16.80;7.75;;;6.90;99.90;;;;;;5040744;28;20033;-61
2023/05/25 03:00:06;;;;;;;18.00;7.88;;;6.90;99.90;;;;;;5042297;28;20044;-60
2023/05/25 03:02:32;;;;;;;26.70;11.32;;;6.90;99.90;;;;;;5041309;28;20033;-61
2023/05/25 03:04:58;;;;;;;16.05;8.55;;;7.00;99.90;;;;;;5041953;28;20048;-60
2023/05/25 03:07:25;;;;;;;24.80;9.15;;;7.00;99.90;;;;;;5039149;28;20164;-61
2023/05/25 03:09:51;;;;;;;17.25;9.02;;;7.00;99.90;;;;;;5040476;28;20033;-60
2023/05/25 03:12:17;;;;;;;22.48;10.23;;;6.90;99.90;;;;;;5041075;28;20056;-61
2023/05/25 03:14:43;;;;;;;17.30;7.75;;;7.00;99.90;;;;;;5038746;28;20041;-58
2023/05/25 03:17:08;;;;;;;14.40;7.60;;;7.00;99.90;;;;;;5045692;28;20037;-59
2023/05/25 03:19:34;;;;;;;15.93;7.65;;;7.00;99.90;;;;;;5038118;28;20124;-60
2023/05/25 03:22:02;;;;;;;18.38;8.52;;;7.00;99.90;;;;;;5036919;28;20037;-60
2023/05/25 03:24:28;;;;;;;23.05;8.68;;;7.00;99.90;;;;;;5041718;28;20045;-60
2023/05/25 03:26:53;;;;;;;17.40;8.23;;;7.10;99.90;;;;;;5043906;28;20037;-61
2023/05/25 03:29:19;;;;;;;17.55;8.57;;;7.00;99.90;;;;;;5041603;28;20126;-61
2023/05/25 03:31:45;;;;;;;18.88;8.35;;;7.10;99.90;;;;;;5031942;28;20099;-61
2023/05/25 03:34:10;;;;;;;18.70;8.40;;;7.20;99.90;;;;;;5040756;28;20072;-60
2023/05/25 03:36:37;;;;;;;18.92;8.02;;;7.20;99.90;;;;;;5040013;28;20032;-60
2023/05/25 03:39:08;;;;;;;21.63;9.05;;;7.20;99.90;;;;;;5042158;28;20098;-61
2023/05/25 03:41:34;;;;;;;24.65;9.43;;;7.30;99.90;;;;;;5035415;28;20115;-60
2023/05/25 03:44:00;;;;;;;21.58;10.00;;;7.30;99.90;;;;;;5032480;28;21034;-61
2023/05/25 03:46:25;;;;;;;;;;;7.30;99.90;;;;;;5043528;28;20045;-62
2023/05/25 03:48:51;;;;;;;28.40;12.02;;;7.40;99.90;;;;;;5039942;28;19923;-63
2023/05/25 03:51:16;;;;;;;;;;;7.50;99.90;;;;;;5036278;28;20029;-63
2023/05/25 03:53:42;;;;;;;25.75;10.00;;;7.60;99.90;;;;;;5039219;28;19967;-62
2023/05/25 03:56:07;;;;;;;26.42;10.57;;;7.60;99.90;;;;;;5043396;28;20776;-61
2023/05/25 03:58:33;;;;;;;25.27;12.30;;;7.50;99.90;;;;;;5038629;28;20033;-62
2023/05/25 04:00:59;;;;;;;20.35;10.25;;;7.70;99.90;;;;;;5040224;28;20124;-63
2023/05/25 04:03:24;;;;;;;21.85;9.38;;;7.70;99.90;;;;;;5039901;28;20037;-62
2023/05/25 04:05:50;;;;;;;;;;;7.70;99.90;;;;;;5038975;28;20115;-62
2023/05/25 04:08:19;;;;;;;22.25;9.93;;;7.80;99.90;;;;;;5041244;28;20449;-61
2023/05/25 04:10:45;;;;;;;30.33;12.15;;;7.90;99.90;;;;;;5043155;28;20033;-61
2023/05/25 04:13:11;;;;;;;26.88;12.38;;;7.90;99.90;;;;;;5042195;28;20048;-62
2023/05/25 04:15:40;;;;;;;26.20;11.73;;;7.90;99.90;;;;;;5042084;28;20041;-62
2023/05/25 04:18:06;;;;;;;21.70;11.45;;;8.00;99.90;;;;;;5045126;28;20033;-62
2023/05/25 04:20:31;;;;;;;20.98;9.93;;;8.10;99.90;;;;;;5041774;28;20033;-62
2023/05/25 04:22:57;;;;;;;39.60;13.93;;;8.10;99.90;;;;;;5034306;28;20075;-62
2023/05/25 04:25:22;;;;;;;;;;;8.10;99.90;;;;;;5039261;28;20103;-63
2023/05/25 04:27:48;;;;;;;20.45;9.98;;;8.20;99.90;;;;;;5040507;28;19928;-60
2023/05/25 04:30:14;;;;;;;21.50;10.55;;;8.20;99.90;;;;;;5038774;28;20130;-60
2023/05/25 04:32:40;;;;;;;24.85;10.98;;;8.20;99.90;;;;;;5042520;28;20111;-61
2023/05/25 04:35:06;;;;;;;;;;;8.30;99.90;;;;;;5038055;28;20632;-61
2023/05/25 04:37:32;;;;;;;27.08;10.00;;;8.30;99.90;;;;;;5041716;28;19921;-60
2023/05/25 04:39:58;;;;;;;27.42;11.75;;;8.30;99.90;;;;;;5045061;28;20048;-61
2023/05/25 04:42:24;;;;;;;32.88;11.43;;;8.30;99.90;;;;;;5043024;28;20101;-61
2023/05/25 04:44:57;;;;;;;24.15;11.75;;;8.30;99.90;;;;;;5043245;28;20047;-60
2023/05/25 04:47:23;;;;;;;26.98;11.15;;;8.40;99.90;;;;;;5044854;28;20037;-60
2023/05/25 04:49:49;;;;;;;;;;;8.30;99.90;;;;;;5043947;28;20168;-59
2023/05/25 04:52:14;;;;;;;28.05;11.68;;;8.40;99.90;;;;;;5039503;28;19916;-60
2023/05/25 04:54:40;;;;;;;;;;;8.30;99.90;;;;;;5042491;28;20033;-61
2023/05/25 04:57:06;;;;;;;33.13;12.65;;;8.40;99.90;;;;;;5048919;28;19928;-59
2023/05/25 04:59:31;;;;;;;41.58;14.82;;;8.30;99.90;;;;;;5046872;28;20075;-59
2023/05/25 05:01:58;;;;;;;34.28;13.38;;;8.30;99.90;;;;;;5047574;28;20760;-57
2023/05/25 05:04:24;;;;;;;33.80;14.23;;;8.30;99.90;;;;;;5046996;28;20094;-60
2023/05/25 05:06:50;;;;;;;;;;;8.30;99.90;;;;;;5044043;28;20041;-60
2023/05/25 05:09:15;;;;;;;36.55;14.85;;;8.30;99.90;;;;;;5040831;28;19916;-60
2023/05/25 05:11:41;;;;;;;;;;;8.20;99.90;;;;;;5048617;28;20045;-60
2023/05/25 05:14:06;;;;;;;27.20;11.80;;;8.30;99.90;;;;;;5045253;28;19963;-62
2023/05/25 05:16:33;;;;;;;;;;;8.30;99.90;;;;;;5043805;28;20131;-61
2023/05/25 05:19:00;;;;;;;29.15;12.32;;;8.30;99.90;;;;;;5044333;28;19921;-61
2023/05/25 05:21:26;;;;;;;31.25;12.90;;;8.30;99.90;;;;;;5041348;28;20056;-60
2023/05/25 05:23:52;;;;;;;;;;;8.50;99.90;;;;;;5040237;28;20041;-60
2023/05/25 05:26:17;;;;;;;33.78;13.18;;;8.50;99.90;;;;;;5044240;28;19955;-61
2023/05/25 05:28:43;;;;;;;;;;;8.50;99.90;;;;;;5046918;28;20032;-58
2023/05/25 05:31:08;;;;;;;39.45;14.55;;;8.50;99.90;;;;;;5044956;28;20491;-61
2023/05/25 05:33:34;;;;;;;;;;;8.50;99.90;;;;;;5046402;28;20043;-64
2023/05/25 05:36:01;;;;;;;27.45;12.57;;;8.50;99.90;;;;;;5050443;28;19913;-63
2023/05/25 05:38:27;;;;;;;32.97;12.82;;;8.70;99.90;;;;;;5042693;28;20044;-62
2023/05/25 05:40:52;;;;;;;;;;;8.80;99.90;;;;;;5044417;28;20827;-63
2023/05/25 05:43:18;;;;;;;28.40;12.98;;;8.80;99.90;;;;;;5042002;28;19916;-63
2023/05/25 05:45:43;;;;;;;31.15;12.77;;;8.80;99.90;;;;;;5039975;28;20063;-60
2023/05/25 05:48:09;;;;;;;;;;;8.80;99.90;;;;;;5045100;28;20040;-61
2023/05/25 05:50:36;;;;;;;23.65;11.85;;;8.90;99.90;;;;;;5044584;28;19917;-58
2023/05/25 05:53:01;;;;;;;24.25;11.52;;;8.90;99.90;;;;;;5032400;28;20037;-60
2023/05/25 05:55:27;;;;;;;;;;;8.90;99.90;;;;;;5045056;28;20040;-56
2023/05/25 05:57:52;;;;;;;24.13;11.65;;;9.10;99.90;;;;;;5042346;28;19916;-60
2023/05/25 06:00:18;;;;;;;;;;;9.30;99.90;;;;;;5036083;28;20041;-58
2023/05/25 06:02:44;;;;;;;27.92;12.38;;;9.30;99.90;;;;;;5038235;28;19913;-59
2023/05/25 06:05:09;;;;;;;26.45;11.43;;;9.20;99.90;;;;;;5038441;28;20044;-59
2023/05/25 06:07:36;;;;;;;;;;;9.20;99.90;;;;;;5042067;28;20124;-56
2023/05/25 06:10:02;;;;;;;19.02;10.15;;;9.30;99.90;;;;;;5044742;28;19938;-61
2023/05/25 06:12:28;;;;;;;25.75;11.48;;;9.50;99.90;;;;;;5038346;28;20074;-61
2023/05/25 06:14:53;;;;;;;;;;;9.80;99.90;;;;;;5040046;28;20408;-59
2023/05/25 06:17:19;;;;;;;29.88;11.80;;;10.40;99.90;;;;;;5045758;28;20355;-60
2023/05/25 06:19:45;;;;;;;;;;;10.90;99.90;;;;;;5043743;28;20467;-58
2023/05/25 06:22:10;;;;;;;18.52;9.23;;;11.40;99.90;;;;;;5043136;28;20423;-61
2023/05/25 06:24:36;;;;;;;;;;;11.90;99.90;;;;;;5038553;28;20103;-59
2023/05/25 06:27:04;;;;;;;18.92;9.18;;;12.60;99.90;;;;;;5045356;28;19921;-61
2023/05/25 06:29:30;;;;;;;22.60;8.52;;;12.90;99.90;;;;;;5042460;28;20164;-61
2023/05/25 06:31:56;;;;;;;;;;;13.30;99.90;;;;;;5044501;28;20080;-61
2023/05/25 06:34:22;;;;;;;25.02;9.10;;;13.20;99.90;;;;;;5041103;28;19928;-59
2023/05/25 06:36:48;;;;;;;22.30;9.25;;;12.80;99.90;;;;;;5047395;28;20063;-61
2023/05/25 06:39:13;;;;;;;;;;;12.50;99.90;;;;;;5040953;28;20251;-58
2023/05/25 06:41:39;;;;;;;19.33;9.60;;;12.00;99.90;;;;;;5036659;28;19921;-59
2023/05/25 06:44:06;;;;;;;21.23;9.80;;;11.80;99.90;;;;;;5041374;28;20041;-59
2023/05/25 06:46:32;;;;;;;21.27;10.02;;;11.40;99.90;;;;;;5044419;28;20088;-60
2023/05/25 06:48:59;;;;;;;21.05;10.00;;;11.20;99.90;;;;;;5040865;28;20133;-58
2023/05/25 06:51:26;;;;;;;21.48;10.32;;;11.00;99.90;;;;;;5040451;28;20044;-59
2023/05/25 06:53:53;;;;;;;23.10;9.73;;;10.90;99.90;;;;;;5033768;28;20053;-61
2023/05/25 06:56:19;;;;;;;24.15;10.27;;;10.70;99.90;;;;;;5038700;28;20037;-61
2023/05/25 06:58:45;;;;;;;;;;;10.70;99.90;;;;;;5039574;28;20103;-61
2023/05/25 07:01:10;;;;;;;22.55;11.00;;;10.60;99.90;;;;;;5038148;28;19924;-59
2023/05/25 07:03:37;;;;;;;;;;;10.40;99.90;;;;;;5036754;28;20536;-61
2023/05/25 07:06:03;;;;;;;25.55;9.80;;;10.40;99.90;;;;;;5037886;28;19924;-61
2023/05/25 07:08:29;;;;;;;;;;;10.50;99.90;;;;;;5037711;28;20052;-57
2023/05/25 07:10:54;;;;;;;23.92;11.10;;;10.60;99.90;;;;;;5033439;28;20620;-57
2023/05/25 07:13:20;;;;;;;24.20;11.10;;;10.60;99.90;;;;;;5040105;28;20082;-60
2023/05/25 07:15:46;;;;;;;22.50;10.93;;;10.70;99.90;;;;;;5036630;28;20040;-60
2023/05/25 07:18:11;;;;;;;23.45;10.00;;;10.70;99.90;;;;;;5039238;28;20141;-60
2023/05/25 07:20:42;;;;;;;19.33;9.98;;;10.90;99.90;;;;;;5037851;28;20044;-61
2023/05/25 07:23:09;;;;;;;21.45;9.95;;;11.10;99.90;;;;;;5034969;28;20045;-60
2023/05/25 07:25:35;;;;;;;23.35;10.65;;;11.10;99.90;;;;;;5036024;28;20044;-58
2023/05/25 07:28:01;;;;;;;;;;;11.50;99.90;;;;;;5045131;28;20120;-60
2023/05/25 07:30:26;;;;;;;19.80;9.43;;;11.60;99.90;;;;;;5042296;28;20011;-60
2023/05/25 07:32:52;;;;;;;;;;;11.60;99.90;;;;;;5045732;28;20473;-61
2023/05/25 07:35:17;;;;;;;23.30;9.52;;;11.30;99.90;;;;;;5042661;28;20351;-61
2023/05/25 07:37:43;;;;;;;;;;;11.30;99.90;;;;;;5043874;28;20531;-59
2023/05/25 07:40:09;;;;;;;23.05;9.55;;;11.20;99.90;;;;;;5039613;28;19921;-60
2023/05/25 07:42:35;;;;;;;22.65;10.10;;;11.10;99.90;;;;;;5043868;28;20106;-59
2023/05/25 07:45:01;;;;;;;;;;;11.00;99.90;;;;;;5035040;28;20463;-59
2023/05/25 07:47:27;;;;;;;22.40;10.65;;;11.00;99.90;;;;;;5044945;28;19921;-60
2023/05/25 07:49:53;;;;;;;;;;;11.10;99.90;;;;;;5041809;28;20045;-61
2023/05/25 07:52:18;;;;;;;16.95;8.80;;;11.10;99.90;;;;;;5045856;28;19921;-64
2023/05/25 07:54:44;;;;;;;20.35;8.38;;;13.00;99.90;;;;;;5040540;28;20568;-60
2023/05/25 07:57:10;;;;;;;17.63;8.02;;;13.50;99.90;;;;;;5048691;28;20172;-61
2023/05/25 07:59:36;;;;;;;;;;;13.30;99.90;;;;;;5042572;28;20124;-61
2023/05/25 08:02:02;;;;;;;25.17;10.43;;;12.90;99.90;;;;;;5045203;28;19920;-60
2023/05/25 08:04:29;;;;;;;16.20;9.45;;;12.30;99.90;;;;;;5047109;28;20057;-60
2023/05/25 08:06:55;;;;;;;24.15;10.93;;;12.00;99.90;;;;;;5047957;28;20055;-61
2023/05/25 08:09:20;;;;;;;;;;;11.50;99.90;;;;;;5038942;28;20127;-60
2023/05/25 08:11:46;;;;;;;20.40;10.18;;;11.50;99.90;;;;;;5042619;28;20357;-61
2023/05/25 08:14:11;;;;;;;;;;;11.80;99.90;;;;;;5044834;28;20044;-60
2023/05/25 08:16:37;;;;;;;19.38;11.30;;;11.60;99.90;;;;;;5043584;28;19921;-60
2023/05/25 08:19:02;;;;;;;;;;;11.60;99.90;;;;;;5042284;28;20481;-61
2023/05/25 08:21:28;;;;;;;20.45;10.20;;;11.50;99.90;;;;;;5042740;28;19916;-60
2023/05/25 08:23:54;;;;;;;;;;;11.40;99.90;;;;;;5044058;28;20048;-60
2023/05/25 08:26:21;;;;;;;24.23;10.80;;;11.40;99.90;;;;;;5044154;28;19921;-60
2023/05/25 08:28:47;;;;;;;22.00;11.20;;;11.40;99.90;;;;;;5042115;28;20040;-60
2023/05/25 08:31:12;;;;;;;;;;;11.40;99.90;;;;;;5045161;28;20401;-61
2023/05/25 08:33:38;;;;;;;25.20;10.63;;;11.50;99.90;;;;;;5041540;28;20019;-61
2023/05/25 08:36:04;;;;;;;;;;;11.40;99.90;;;;;;5046984;28;20704;-61
2023/05/25 08:38:30;;;;;;;24.88;9.60;;;11.60;99.90;;;;;;5037835;28;19916;-61
2023/05/25 08:41:03;;;;;;;;;;;11.60;99.90;;;;;;5040967;28;20048;-60
2023/05/25 08:43:29;;;;;;;20.70;10.75;;;11.60;99.90;;;;;;5043734;28;20368;-56
2023/05/25 08:46:02;;;;;;;18.75;10.00;;;11.70;99.90;;;;;;5042946;28;21355;-60
2023/05/25 08:48:31;;;;;;;24.42;10.82;;;11.80;99.90;;;;;;5040952;28;20048;-60
2023/05/25 08:51:03;;;;;;;21.17;11.48;;;12.30;99.90;;;;;;5039380;28;20090;-57
2023/05/25 08:53:32;;;;;;;19.50;10.52;;;12.40;99.90;;;;;;5040991;28;20041;-61
2023/05/25 08:55:59;;;;;;;29.15;12.43;;;12.20;99.90;;;;;;5042993;28;20053;-58
2023/05/25 08:58:31;;;;;;;22.45;11.18;;;12.10;99.90;;;;;;5043153;28;20128;-59
2023/05/25 09:01:02;;;;;;;17.83;10.32;;;12.30;99.90;;;;;;5039814;28;20917;-60
2023/05/25 09:03:32;;;;;;;22.17;10.40;;;12.40;99.90;;;;;;5042741;28;20041;-59
2023/05/25 09:05:58;;;;;;;21.08;9.60;;;12.50;99.90;;;;;;5046172;28;21477;-61
2023/05/25 09:08:25;;;;;;;19.33;11.88;;;12.70;99.90;;;;;;5042567;28;20132;-62
2023/05/25 09:10:52;;;;;;;26.95;11.27;;;13.10;99.90;;;;;;5034563;28;20041;-60
2023/05/25 09:13:18;;;;;;;22.08;9.95;;;13.00;99.90;;;;;;5038019;28;20515;-62
2023/05/25 09:15:44;;;;;;;22.48;9.25;;;12.90;99.90;;;;;;5036343;28;20559;-59
2023/05/25 09:18:10;;;;;;;;;;;12.90;99.90;;;;;;5044086;28;20049;-59
2023/05/25 09:20:35;;;;;;;25.45;10.25;;;12.90;99.90;;;;;;5035482;28;19968;-61
2023/05/25 09:23:02;;;;;;;25.80;9.15;;;12.90;99.90;;;;;;5031007;28;20033;-59
2023/05/25 09:25:29;;;;;;;19.23;9.60;;;12.80;99.90;;;;;;5038425;28;20044;-60
2023/05/25 09:27:57;;;;;;;20.92;9.70;;;13.00;99.90;;;;;;5044211;28;20555;-60
2023/05/25 09:30:23;;;;;;;26.63;10.23;;;13.10;99.90;;;;;;5039517;28;20120;-60
2023/05/25 09:32:50;;;;;;;24.98;10.73;;;13.20;99.90;;;;;;5043851;28;20041;-61
2023/05/25 09:35:16;;;;;;;32.40;12.52;;;13.20;99.90;;;;;;5036592;28;20052;-61
2023/05/25 09:37:42;;;;;;;;;;;13.20;99.90;;;;;;5044720;28;20045;-61
2023/05/25 09:40:09;;;;;;;17.80;9.35;;;13.30;99.90;;;;;;5037506;28;19916;-59
2023/05/25 09:42:36;;;;;;;19.85;9.52;;;13.40;99.90;;;;;;5040509;28;20097;-60
2023/05/25 09:45:02;;;;;;;18.30;8.98;;;13.30;99.90;;;;;;5041377;28;20041;-59
2023/05/25 09:47:28;;;;;;;19.67;9.57;;;13.30;99.90;;;;;;5039768;28;20075;-59
2023/05/25 09:49:57;;;;;;;;;;;13.40;99.90;;;;;;5034727;28;20088;-61
2023/05/25 09:52:23;;;;;;;19.15;8.80;;;13.20;99.90;;;;;;5041313;28;19924;-61
2023/05/25 09:54:49;;;;;;;;;;;13.30;99.90;;;;;;5032345;28;20049;-61
2023/05/25 09:57:17;;;;;;;16.30;7.63;;;13.60;99.90;;;;;;5043109;28;20019;-60
2023/05/25 09:59:44;;;;;;;18.77;7.80;;;13.60;99.90;;;;;;5044448;28;20041;-61
2023/05/25 10:02:10;;;;;;;25.83;9.55;;;13.70;99.90;;;;;;5040219;28;20040;-60
2023/05/25 10:04:35;;;;;;;17.48;8.63;;;13.70;99.90;;;;;;5038083;28;20041;-60
2023/05/25 10:07:02;;;;;;;;;;;13.70;99.90;;;;;;5045132;28;20470;-61
2023/05/25 10:09:29;;;;;;;20.33;8.77;;;13.30;99.90;;;;;;5038949;28;19925;-61
2023/05/25 10:11:56;;;;;;;15.90;7.90;;;12.90;99.90;;;;;;5042192;28;20293;-62
2023/05/25 10:14:26;;;;;;;19.17;9.00;;;13.10;99.90;;;;;;5040529;28;20041;-58
2023/05/25 10:16:54;;;;;;;14.05;7.45;;;13.00;99.90;;;;;;5046199;28;20052;-61
2023/05/25 10:19:30;;;;;;;15.45;8.52;;;13.20;99.90;;;;;;5043285;28;20045;-60
2023/05/25 10:22:06;;;;;;;17.42;8.43;;;13.40;99.90;;;;;;5032709;28;20049;-60
2023/05/25 10:24:43;;;;;;;;;;;13.40;99.90;;;;;;5039092;28;20052;-59
2023/05/25 10:27:18;;;;;;;13.63;6.82;;;13.60;99.90;;;;;;5039301;28;19936;-62
2023/05/25 10:29:47;;;;;;;19.83;9.23;;;14.00;99.90;;;;;;5041806;28;20071;-61
2023/05/25 10:32:13;;;;;;;22.17;9.63;;;14.10;99.90;;;;;;5037273;28;20040;-62
2023/05/25 10:34:40;;;;;;;22.23;8.27;;;13.90;99.90;;;;;;5038335;28;20068;-64
2023/05/25 10:37:07;;;;;;;15.85;9.15;;;14.00;99.90;;;;;;5041877;28;20041;-62
2023/05/25 10:39:34;;;;;;;21.70;8.80;;;13.60;99.90;;;;;;5038859;28;20124;-62
2023/05/25 10:42:02;;;;;;;21.20;10.20;;;13.40;99.90;;;;;;5040317;28;20045;-62
2023/05/25 10:44:29;;;;;;;22.20;9.25;;;13.50;99.90;;;;;;5034589;28;20064;-62
2023/05/25 10:46:57;;;;;;;16.02;9.13;;;13.80;99.90;;;;;;5036387;28;20156;-63
2023/05/25 10:49:31;;;;;;;14.30;8.95;;;13.60;99.90;;;;;;5036507;28;20059;-65
2023/05/25 10:52:04;;;;;;;17.25;8.55;;;13.40;99.90;;;;;;5037102;28;20067;-64
2023/05/25 10:54:30;;;;;;;22.38;10.13;;;13.40;99.90;;;;;;5037905;28;20045;-62
2023/05/25 10:57:16;;;;;;;20.85;10.50;;;13.20;99.90;;;;;;5030380;28;20040;-63
2023/05/25 10:59:46;;;;;;;21.30;9.23;;;13.10;99.90;;;;;;5036908;28;20102;-63
2023/05/25 11:02:14;;;;;;;23.33;9.98;;;13.40;99.90;;;;;;5028613;28;20686;-63
2023/05/25 11:04:40;;;;;;;18.73;10.00;;;13.50;99.90;;;;;;5035836;28;20029;-63
2023/05/25 11:07:07;;;;;;;;;;;13.30;99.90;;;;;;5028571;28;20482;-60
2023/05/25 11:09:39;;;;;;;;;;;13.40;99.90;;;;;;5033881;28;19928;-62
2023/05/25 11:12:05;;;;;;;;;;;13.40;99.90;;;;;;5033161;28;20028;-64
2023/05/25 11:14:37;;;;;;;;;;;13.40;99.90;;;;;;5035704;28;19921;-64
2023/05/25 11:17:13;;;;;;;;;;;13.70;99.90;;;;;;5038535;28;19996;-64
2023/05/25 11:19:42;;;;;;;;;;;13.70;99.90;;;;;;5032949;28;20373;-64
2023/05/25 11:22:15;;;;;;;;;;;13.60;99.90;;;;;;5030710;28;19950;-66
2023/05/25 11:24:41;;;;;;;;;;;13.60;99.90;;;;;;5039332;28;20050;-64
2023/05/25 11:27:07;;;;;;;;;;;13.40;99.90;;;;;;5036598;28;20039;-63
2023/05/25 11:29:35;;;;;;;;;;;13.50;99.90;;;;;;5032486;28;19921;-62
2023/05/25 11:32:01;;;;;;;;;;;13.50;99.90;;;;;;5027534;28;20896;-64
2023/05/25 11:34:28;;;;;;;;;;;13.10;99.90;;;;;;5030768;28;20440;-63
2023/05/25 11:36:54;;;;;;;;;;;12.90;99.90;;;;;;5040583;28;19970;-65
2023/05/25 11:39:21;;;;;;;;;;;13.20;99.90;;;;;;5037485;28;19966;-64
2023/05/25 11:41:54;;;;;;;;;;;13.40;99.90;;;;;;5034084;28;20791;-63
2023/05/25 11:44:29;;;;;;;;;;;13.10;99.90;;;;;;5038437;28;19944;-64
2023/05/25 11:46:56;;;;;;;;;;;13.10;99.90;;;;;;5042585;28;19956;-63
2023/05/25 11:49:23;;;;;;;;;;;13.20;99.90;;;;;;5034609;28;20368;-65
2023/05/25 11:51:48;;;;;;;;;;;13.20;99.90;;;;;;5038980;28;20019;-64
2023/05/25 11:54:20;;;;;;;;;;;12.80;99.90;;;;;;5039826;28;20015;-63
2023/05/25 11:56:46;;;;;;;;;;;12.50;99.90;;;;;;5035328;28;19960;-64
2023/05/25 11:59:11;;;;;;;;;;;12.40;99.90;;;;;;5036045;28;19967;-63
2023/05/25 12:01:37;;;;;;;;;;;12.20;99.90;;;;;;5030871;28;19952;-63
2023/05/25 12:04:07;;;;;;;;;;;12.10;99.90;;;;;;5032919;28;19920;-64
2023/05/25 12:06:33;;;;;;;;;;;11.90;99.90;;;;;;5035475;28;19944;-63
2023/05/25 12:09:00;;;;;;;;;;;11.80;99.90;;;;;;5035721;28;19916;-62
2023/05/25 12:11:38;;;;;;;;;;;11.90;99.90;;;;;;5032818;28;20300;-64
2023/05/25 12:14:05;;;;;;;;;;;11.90;99.90;;;;;;5034172;28;19928;-64
2023/05/25 12:16:33;;;;;;;;;;;12.00;99.90;;;;;;5035780;28;19939;-63
2023/05/25 12:19:00;;;;;;;;;;;11.70;99.90;;;;;;5038412;28;19991;-63
2023/05/25 12:21:26;;;;;;;;;;;11.50;99.90;;;;;;5032961;28;19970;-64
2023/05/25 12:23:52;;;;;;;;;;;11.60;99.90;;;;;;5041490;28;19921;-62
2023/05/25 12:26:18;;;;;;;;;;;11.40;99.90;;;;;;5038463;28;19920;-63
2023/05/25 12:29:00;;;;;;;;;;;11.40;99.90;;;;;;5038699;28;19979;-63
2023/05/25 12:31:30;;;;;;;;;;;11.40;99.90;;;;;;5040630;28;19920;-63
2023/05/25 12:34:05;;;;;;;;;;;11.30;99.90;;;;;;5043023;28;19967;-63
2023/05/25 12:36:39;;;;;;;;;;;11.30;99.90;;;;;;5043522;28;19998;-63
2023/05/25 12:39:06;;;;;;;;;;;11.30;99.90;;;;;;5038386;28;20383;-63
2023/05/25 12:41:41;;;;;;;;;;;11.20;99.90;;;;;;5040741;28;19921;-64
2023/05/25 12:44:14;;;;;;;;;;;11.00;99.90;;;;;;5035628;28;20015;-63
2023/05/25 12:46:40;;;;;;;;;;;11.20;99.90;;;;;;5043233;28;19927;-63
2023/05/25 12:49:20;;;;;;;;;;;11.20;99.90;;;;;;5044921;28;19920;-65
2023/05/25 12:51:45;;;;;;;;;;;11.20;99.90;;;;;;5040490;28;19927;-65
2023/05/25 12:54:11;;;;;;;;;;;11.30;99.90;;;;;;5037255;28;19921;-65
2023/05/25 12:56:52;;;;;;;;;;;11.30;99.90;;;;;;5043729;28;19921;-60
2023/05/25 12:59:17;;;;;;;;;;;11.30;99.90;;;;;;5043619;28;19920;-62
2023/05/25 13:01:43;;;;;;;;;;;11.20;99.90;;;;;;5040115;28;20368;-62
2023/05/25 13:04:08;;;;;;;;;;;11.40;99.90;;;;;;5042268;28;19984;-63
2023/05/25 13:06:34;;;;;;;;;;;11.60;99.90;;;;;;5042194;28;19924;-63
2023/05/25 13:09:00;;;;;;;;;;;11.50;99.90;;;;;;5046089;28;19940;-64
2023/05/25 13:11:26;;;;;;;;;;;11.50;99.90;;;;;;5035879;28;20349;-64